Time;durP1;ratioP1;P1;durP2;ratioP2;P2;SDS_P1;SDS_P2;PMS_P1;PMS_P2;Temp;Humidity;BMP_temperature;BMP_pressure;BME280_temperature;BME280_humidity;BME280_pressure;Samples;Min_cycle;Max_cycle;Signal;HPM_P1;HPM_P2
2023/02/12 00:01:26;;;;;;;4.60;4.30;;;21.50;59.50;;;;;;6249541;23;20405;-92
2023/02/12 00:03:52;;;;;;;3.87;3.53;;;21.50;59.50;;;;;;6248919;23;20475;-92
2023/02/12 00:06:19;;;;;;;3.77;3.57;;;21.50;59.40;;;;;;6249850;23;20401;-92
2023/02/12 00:08:49;;;;;;;4.23;3.83;;;21.50;59.40;;;;;;6249471;22;20432;-91
2023/02/12 00:11:18;;;;;;;4.20;3.83;;;21.50;59.40;;;;;;6250403;23;20464;-91
2023/02/12 00:13:45;;;;;;;4.37;3.97;;;21.50;59.40;;;;;;6251124;23;20402;-90
2023/02/12 00:16:16;;;;;;;3.60;3.30;;;21.50;59.40;;;;;;6264598;22;20418;-91
2023/02/12 00:18:44;;;;;;;3.80;3.50;;;21.60;59.40;;;;;;6275899;22;20421;-91
2023/02/12 00:21:12;;;;;;;4.07;3.80;;;21.60;59.40;;;;;;6255817;22;20429;-93
2023/02/12 00:23:40;;;;;;;3.47;3.17;;;21.50;59.30;;;;;;6247652;23;20433;-92
2023/02/12 00:26:08;;;;;;;3.80;3.37;;;21.50;59.30;;;;;;6247950;23;20398;-92
2023/02/12 00:28:36;;;;;;;3.30;3.00;;;21.50;59.30;;;;;;6248448;23;20401;-91
2023/02/12 00:31:07;;;;;;;3.37;3.10;;;21.50;59.90;;;;;;6247963;23;20747;-91
2023/02/12 00:33:35;;;;;;;4.63;4.23;;;21.40;59.20;;;;;;6248179;23;20500;-91
2023/02/12 00:36:02;;;;;;;3.53;3.23;;;21.60;59.40;;;;;;6248285;23;20412;-91
2023/02/12 00:38:29;;;;;;;3.40;3.20;;;21.40;59.20;;;;;;6248054;22;20425;-91
2023/02/12 00:40:56;;;;;;;3.70;3.37;;;21.40;59.20;;;;;;6247843;23;20492;-91
2023/02/12 00:43:23;;;;;;;4.47;4.07;;;21.40;59.10;;;;;;6247888;23;20436;-91
2023/02/12 00:45:49;;;;;;;3.23;3.03;;;21.40;59.10;;;;;;6247657;23;20406;-91
2023/02/12 00:48:17;;;;;;;4.03;3.73;;;21.40;59.10;;;;;;6249127;23;20489;-91
2023/02/12 00:50:46;;;;;;;3.70;3.40;;;21.40;59.10;;;;;;6253471;23;20406;-91
2023/02/12 00:53:13;;;;;;;4.00;3.70;;;21.40;59.00;;;;;;6256774;23;20468;-92
2023/02/12 00:55:40;;;;;;;4.03;3.73;;;21.40;59.00;;;;;;6260388;23;20434;-92
2023/02/12 00:58:08;;;;;;;3.77;3.50;;;21.50;59.10;;;;;;6257174;23;20480;-91
2023/02/12 01:00:35;;;;;;;3.13;2.93;;;21.40;59.00;;;;;;6257706;23;20408;-92
2023/02/12 01:03:03;;;;;;;3.07;2.87;;;21.50;59.10;;;;;;6261283;23;20466;-91
2023/02/12 01:05:29;;;;;;;3.70;3.50;;;21.40;58.90;;;;;;6261342;23;20457;-92
2023/02/12 01:07:57;;;;;;;3.60;3.30;;;21.40;59.00;;;;;;6259989;22;20422;-92
2023/02/12 01:10:24;;;;;;;3.77;3.47;;;21.40;58.90;;;;;;6264530;22;20429;-91
2023/02/12 01:12:51;;;;;;;2.93;2.73;;;21.40;58.90;;;;;;6275461;22;20421;-91
2023/02/12 01:15:19;;;;;;;3.80;3.50;;;21.30;58.80;;;;;;6275324;22;20397;-91
2023/02/12 01:17:46;;;;;;;3.43;3.23;;;21.30;58.80;;;;;;6274840;22;20409;-91
2023/02/12 01:20:16;;;;;;;3.50;3.20;;;21.30;58.80;;;;;;6259855;23;20430;-91
2023/02/12 01:22:43;;;;;;;3.40;3.20;;;21.30;58.80;;;;;;6257144;23;20398;-91
2023/02/12 01:25:12;;;;;;;3.40;3.20;;;21.50;58.90;;;;;;6258222;23;20441;-93
2023/02/12 01:27:39;;;;;;;3.17;2.97;;;21.30;58.80;;;;;;6257841;23;20480;-91
2023/02/12 01:30:09;;;;;;;3.30;3.10;;;21.40;58.80;;;;;;6254500;23;20401;-91
2023/02/12 01:32:35;;;;;;;3.40;3.10;;;21.30;58.70;;;;;;6256591;23;20478;-91
2023/02/12 01:35:03;;;;;;;3.40;3.10;;;21.30;58.70;;;;;;6259564;23;20485;-92
2023/02/12 01:37:30;;;;;;;3.50;3.20;;;21.30;58.70;;;;;;6256709;22;20427;-91
2023/02/12 01:39:57;;;;;;;3.87;3.20;;;21.30;58.70;;;;;;6256341;23;20492;-91
2023/02/12 01:42:25;;;;;;;2.83;2.63;;;21.30;58.70;;;;;;6256117;23;20401;-91
2023/02/12 01:45:44;;;;;;;3.07;2.87;;;21.30;58.70;;;;;;6233414;23;20441;-89
2023/02/12 01:48:11;;;;;;;3.97;3.67;;;21.20;58.60;;;;;;6262168;23;20939;-88
2023/02/12 01:50:39;;;;;;;3.30;3.10;;;21.20;59.20;;;;;;6263492;22;20480;-89
2023/02/12 01:53:05;;;;;;;3.47;3.17;;;21.20;58.60;;;;;;6257122;23;20408;-92
2023/02/12 01:55:33;;;;;;;3.47;3.17;;;21.20;58.60;;;;;;6247415;23;20491;-92
2023/02/12 01:58:04;;;;;;;3.20;2.77;;;21.20;58.50;;;;;;6247989;23;20890;-90
2023/02/12 02:00:32;;;;;;;2.80;2.60;;;21.20;58.60;;;;;;6248744;23;20392;-91
2023/02/12 02:03:00;;;;;;;2.70;2.33;;;21.30;58.60;;;;;;6247334;23;20405;-91
2023/02/12 02:05:35;;;;;;;3.20;3.00;;;21.20;58.50;;;;;;6247428;23;20449;-91
2023/02/12 02:08:02;;;;;;;2.67;2.47;;;21.20;58.50;;;;;;6247066;22;20507;-91
2023/02/12 02:10:30;;;;;;;3.20;3.00;;;21.20;58.50;;;;;;6247824;23;20500;-92
2023/02/12 02:15:47;;;;;;;2.77;2.57;;;21.20;58.50;;;;;;6247835;23;20919;-91
2023/02/12 02:18:18;;;;;;;3.43;3.23;;;21.20;58.60;;;;;;6247198;23;21096;-91
2023/02/12 02:21:30;;;;;;;3.03;2.83;;;21.30;58.60;;;;;;6247574;23;20385;-91
2023/02/12 02:24:35;;;;;;;3.40;3.17;;;21.20;58.40;;;;;;6247404;23;20407;-91
2023/02/12 02:27:16;;;;;;;4.47;3.40;;;21.20;58.50;;;;;;6246853;23;20405;-91
2023/02/12 02:30:13;;;;;;;3.20;2.90;;;21.20;58.50;;;;;;6246875;23;20480;-92
2023/02/12 02:32:48;;;;;;;2.63;2.43;;;21.10;58.30;;;;;;6181868;23;20405;-91
2023/02/12 02:35:24;;;;;;;3.07;2.87;;;21.20;58.50;;;;;;6247003;23;20390;-92
2023/02/12 02:37:57;;;;;;;3.00;2.80;;;21.10;58.40;;;;;;6247348;22;20423;-91
2023/02/12 02:40:27;;;;;;;2.90;2.70;;;21.10;58.30;;;;;;6247529;23;20390;-92
2023/02/12 02:42:59;;;;;;;2.80;2.60;;;21.10;58.30;;;;;;6249036;23;20436;-91
2023/02/12 02:45:31;;;;;;;2.73;2.53;;;21.10;58.30;;;;;;6248936;23;20447;-91
2023/02/12 02:48:04;;;;;;;3.00;2.80;;;21.10;58.30;;;;;;6248601;23;20386;-91
2023/02/12 02:50:35;;;;;;;2.40;2.30;;;21.10;58.30;;;;;;6249210;23;20432;-92
2023/02/12 02:53:06;;;;;;;2.43;2.27;;;21.10;58.30;;;;;;6254396;22;20408;-91
2023/02/12 02:55:38;;;;;;;2.20;2.10;;;21.10;58.30;;;;;;6274831;22;20385;-90
2023/02/12 02:58:09;;;;;;;2.73;2.50;;;21.10;58.30;;;;;;6262720;22;20418;-92
2023/02/12 03:00:39;;;;;;;3.13;2.93;;;21.00;58.30;;;;;;6247000;23;20416;-93
2023/02/12 03:03:15;;;;;;;3.20;2.77;;;21.10;58.30;;;;;;6246947;23;20405;-92
2023/02/12 03:05:46;;;;;;;2.70;2.50;;;21.20;58.40;;;;;;6246296;23;20967;-92
2023/02/12 03:08:16;;;;;;;2.53;2.33;;;21.10;58.30;;;;;;6246492;22;20428;-91
2023/02/12 03:10:46;;;;;;;2.47;2.37;;;21.10;58.30;;;;;;6246991;23;20389;-91
2023/02/12 03:13:20;;;;;;;2.70;2.60;;;21.20;58.40;;;;;;6247134;23;20402;-91
2023/02/12 03:15:52;;;;;;;3.00;2.80;;;21.20;58.40;;;;;;6246894;23;20919;-91
2023/02/12 03:18:24;;;;;;;2.27;2.13;;;21.00;58.20;;;;;;6246635;23;20876;-90
2023/02/12 03:20:57;;;;;;;3.00;2.70;;;21.00;58.20;;;;;;6247575;23;20464;-91
2023/02/12 03:23:28;;;;;;;2.97;2.77;;;21.00;58.20;;;;;;6248680;23;20786;-91
2023/02/12 03:25:59;;;;;;;2.60;2.40;;;21.00;58.20;;;;;;6249313;23;20437;-92
2023/02/12 03:28:29;;;;;;;3.13;2.90;;;21.00;58.20;;;;;;6248536;23;20409;-92
2023/02/12 03:31:05;;;;;;;2.60;2.40;;;21.00;58.20;;;;;;6248552;23;20386;-92
2023/02/12 03:33:44;;;;;;;4.03;2.90;;;21.20;58.30;;;;;;6248815;23;20477;-92
2023/02/12 03:36:22;;;;;;;2.87;2.67;;;21.00;58.20;;;;;;6248698;23;20415;-92
2023/02/12 03:38:53;;;;;;;2.30;2.20;;;21.00;58.10;;;;;;6248513;23;20395;-91
2023/02/12 03:41:24;;;;;;;3.07;2.87;;;21.00;58.10;;;;;;6248645;23;20405;-91
2023/02/12 03:43:55;;;;;;;2.40;2.20;;;20.90;58.20;;;;;;6249341;23;20698;-90
2023/02/12 03:46:27;;;;;;;2.80;2.60;;;21.00;58.10;;;;;;6248273;23;20445;-91
2023/02/12 03:49:03;;;;;;;2.63;2.43;;;21.20;58.30;;;;;;6248532;23;20390;-90
2023/02/12 03:51:36;;;;;;;2.20;2.10;;;20.90;58.10;;;;;;6248389;23;20463;-90
2023/02/12 03:54:06;;;;;;;2.77;2.57;;;21.00;58.10;;;;;;6247974;23;20397;-92
2023/02/12 03:56:37;;;;;;;2.83;2.63;;;21.00;58.20;;;;;;6247951;23;20500;-92
2023/02/12 03:59:04;;;;;;;2.83;2.63;;;21.00;58.10;;;;;;6248422;23;20422;-91
2023/02/12 04:01:33;;;;;;;3.10;2.80;;;21.00;58.10;;;;;;6248017;23;20408;-91
2023/02/12 04:04:04;;;;;;;2.40;2.20;;;21.00;58.10;;;;;;6248358;23;20406;-90
2023/02/12 04:06:31;;;;;;;2.30;2.10;;;21.00;58.10;;;;;;6248189;22;20524;-90
2023/02/12 04:09:02;;;;;;;2.73;2.53;;;21.00;58.10;;;;;;6247951;23;20401;-91
2023/02/12 04:11:34;;;;;;;2.57;2.47;;;21.00;58.00;;;;;;6247878;23;20395;-91
2023/02/12 04:14:14;;;;;;;2.80;2.60;;;20.90;58.00;;;;;;6248044;23;20396;-91
2023/02/12 04:16:48;;;;;;;2.60;2.40;;;20.90;58.00;;;;;;6248570;23;20392;-90
2023/02/12 04:19:23;;;;;;;2.50;2.30;;;20.90;58.00;;;;;;6248054;23;20523;-91
2023/02/12 04:22:00;;;;;;;2.30;2.20;;;20.90;58.10;;;;;;6248594;23;20925;-91
2023/02/12 04:24:37;;;;;;;2.60;2.40;;;20.90;58.10;;;;;;6248770;23;20395;-90
2023/02/12 04:27:12;;;;;;;3.10;2.90;;;20.90;58.00;;;;;;6248842;23;20394;-91
2023/02/12 04:29:47;;;;;;;2.80;2.60;;;20.90;58.00;;;;;;6247956;23;20484;-91
2023/02/12 04:32:18;;;;;;;2.80;2.60;;;20.90;58.10;;;;;;6248048;23;20389;-91
2023/02/12 04:34:53;;;;;;;2.37;2.20;;;21.00;58.10;;;;;;6248480;23;20397;-90
2023/02/12 04:37:23;;;;;;;2.83;2.63;;;21.10;58.10;;;;;;6248141;22;20417;-90
2023/02/12 04:39:53;;;;;;;3.07;2.73;;;21.00;58.10;;;;;;6247720;23;20732;-91
2023/02/12 04:42:20;;;;;;;2.80;2.60;;;20.90;58.00;;;;;;6248391;23;20795;-91
2023/02/12 04:44:47;;;;;;;2.83;2.63;;;20.90;58.00;;;;;;6248189;23;20437;-91
2023/02/12 04:47:16;;;;;;;2.60;2.40;;;20.90;58.00;;;;;;6248246;23;20409;-92
2023/02/12 04:49:43;;;;;;;2.17;2.07;;;20.90;58.00;;;;;;6248165;23;20484;-92
2023/02/12 04:52:11;;;;;;;2.10;2.00;;;20.90;58.00;;;;;;6248020;23;20716;-92
2023/02/12 04:54:38;;;;;;;2.73;2.53;;;21.00;58.10;;;;;;6248098;23;20496;-92
2023/02/12 04:57:05;;;;;;;2.60;2.40;;;20.90;58.00;;;;;;6248363;23;20409;-91
2023/02/12 04:59:32;;;;;;;2.90;2.70;;;20.90;58.00;;;;;;6247746;23;20406;-91
2023/02/12 05:01:59;;;;;;;2.20;2.00;;;20.90;58.00;;;;;;6248169;23;20468;-91
2023/02/12 05:04:25;;;;;;;2.40;2.30;;;20.90;57.90;;;;;;6247589;23;20787;-92
2023/02/12 05:06:52;;;;;;;2.73;2.53;;;20.90;57.90;;;;;;6247843;22;20544;-91
2023/02/12 05:09:21;;;;;;;2.43;2.23;;;20.80;57.90;;;;;;6247935;23;20410;-93
2023/02/12 05:11:48;;;;;;;2.40;2.30;;;20.90;57.90;;;;;;6248160;23;20413;-91
2023/02/12 05:14:15;;;;;;;1.90;1.80;;;20.90;57.90;;;;;;6248786;23;20405;-92
2023/02/12 05:16:42;;;;;;;2.43;2.23;;;20.90;57.90;;;;;;6248315;23;20402;-91
2023/02/12 05:19:09;;;;;;;2.70;2.50;;;20.80;57.90;;;;;;6247869;23;20436;-92
2023/02/12 05:21:36;;;;;;;2.63;2.43;;;20.80;57.80;;;;;;6247883;23;20405;-91
2023/02/12 05:24:03;;;;;;;2.53;2.33;;;20.90;57.90;;;;;;6248554;23;20408;-90
2023/02/12 05:26:32;;;;;;;2.63;2.50;;;20.90;57.90;;;;;;6249154;23;20447;-91
2023/02/12 05:28:58;;;;;;;2.20;2.10;;;20.80;57.80;;;;;;6251188;23;20409;-91
2023/02/12 05:31:25;;;;;;;2.70;2.50;;;20.80;57.80;;;;;;6268223;22;20413;-91
2023/02/12 05:33:53;;;;;;;2.70;2.50;;;20.80;57.90;;;;;;6275440;22;20409;-90
2023/02/12 05:36:21;;;;;;;2.67;2.47;;;20.80;57.80;;;;;;6251451;23;20401;-91
2023/02/12 05:38:49;;;;;;;2.40;2.30;;;20.80;57.80;;;;;;6247723;23;20484;-91
2023/02/12 05:41:17;;;;;;;2.57;2.37;;;20.80;57.80;;;;;;6247013;23;20401;-91
2023/02/12 05:43:46;;;;;;;2.63;2.47;;;20.80;57.80;;;;;;6246545;23;20493;-91
2023/02/12 05:46:13;;;;;;;2.60;2.40;;;20.80;57.80;;;;;;6247075;23;20443;-91
2023/02/12 05:48:40;;;;;;;2.07;1.97;;;20.90;57.90;;;;;;6247260;23;20484;-91
2023/02/12 05:51:09;;;;;;;2.87;2.67;;;20.90;57.90;;;;;;6247316;23;20405;-92
2023/02/12 05:53:37;;;;;;;2.47;2.30;;;20.90;57.90;;;;;;6248099;23;20401;-92
2023/02/12 05:56:13;;;;;;;2.50;2.40;;;20.80;57.80;;;;;;6248087;23;20733;-91
2023/02/12 05:58:41;;;;;;;2.60;2.40;;;20.80;57.80;;;;;;6255082;22;20460;-91
2023/02/12 06:01:15;;;;;;;2.23;2.13;;;20.80;57.80;;;;;;6274926;22;20436;-91
2023/02/12 06:03:42;;;;;;;2.73;2.53;;;20.80;57.80;;;;;;6274577;22;20467;-91
2023/02/12 06:06:09;;;;;;;2.50;2.30;;;20.80;57.70;;;;;;6268158;22;20479;-93
2023/02/12 06:08:37;;;;;;;2.40;2.20;;;20.80;57.70;;;;;;6250336;22;20429;-93
2023/02/12 06:11:06;;;;;;;2.67;2.47;;;20.80;57.70;;;;;;6249725;23;20484;-91
2023/02/12 06:13:34;;;;;;;2.80;2.60;;;20.80;57.80;;;;;;6248363;23;20408;-92
2023/02/12 06:16:01;;;;;;;2.80;2.60;;;20.80;57.80;;;;;;6248277;23;20405;-91
2023/02/12 06:18:29;;;;;;;2.73;2.53;;;20.80;58.30;;;;;;6247549;23;20436;-91
2023/02/12 06:20:56;;;;;;;2.43;2.23;;;20.90;57.90;;;;;;6247341;23;20484;-92
2023/02/12 06:23:24;;;;;;;2.80;2.60;;;20.80;57.80;;;;;;6246766;23;20406;-92
2023/02/12 06:25:51;;;;;;;2.80;2.60;;;20.80;57.80;;;;;;6247168;23;20439;-92
2023/02/12 06:28:18;;;;;;;2.37;2.27;;;20.80;57.80;;;;;;6246939;23;20407;-92
2023/02/12 06:30:45;;;;;;;3.47;3.23;;;20.90;57.90;;;;;;6221312;23;20412;-91
2023/02/12 06:33:12;;;;;;;3.20;2.90;;;20.80;57.70;;;;;;6246718;23;20397;-94
2023/02/12 06:35:40;;;;;;;2.60;2.40;;;20.80;57.70;;;;;;6246740;23;20476;-92
2023/02/12 06:38:07;;;;;;;2.50;2.30;;;20.70;57.70;;;;;;6246446;22;20421;-92
2023/02/12 06:40:34;;;;;;;2.40;2.20;;;20.70;57.70;;;;;;6246851;23;20409;-92
2023/02/12 06:43:00;;;;;;;2.53;2.33;;;20.70;57.70;;;;;;6246790;23;20954;-91
2023/02/12 06:45:27;;;;;;;2.80;2.60;;;20.70;57.70;;;;;;6247085;23;20444;-92
2023/02/12 06:47:54;;;;;;;2.60;2.40;;;20.70;57.70;;;;;;6246491;23;20401;-91
2023/02/12 06:50:21;;;;;;;3.07;2.87;;;20.70;57.70;;;;;;6246966;23;20802;-92
2023/02/12 06:52:49;;;;;;;3.10;2.90;;;20.70;57.60;;;;;;6247475;23;20412;-93
2023/02/12 06:55:16;;;;;;;2.67;2.47;;;20.70;57.70;;;;;;6247549;23;20397;-92
2023/02/12 06:57:43;;;;;;;2.23;2.13;;;20.70;57.70;;;;;;6249055;23;20397;-92
2023/02/12 07:00:11;;;;;;;2.73;2.53;;;20.70;57.80;;;;;;6249247;23;20436;-91
2023/02/12 07:02:38;;;;;;;3.00;2.80;;;20.70;57.70;;;;;;6249178;23;20719;-92
2023/02/12 07:05:05;;;;;;;2.67;2.47;;;20.70;57.70;;;;;;6249167;23;20411;-91
2023/02/12 07:07:32;;;;;;;3.10;2.90;;;20.70;57.70;;;;;;6248538;22;20445;-93
2023/02/12 07:10:01;;;;;;;2.90;2.70;;;20.70;57.60;;;;;;6248867;23;20433;-91
2023/02/12 07:12:27;;;;;;;3.47;3.27;;;20.70;57.70;;;;;;6248718;23;20412;-91
2023/02/12 07:14:54;;;;;;;2.63;2.43;;;20.70;57.70;;;;;;6248923;23;20404;-92
2023/02/12 07:17:21;;;;;;;2.90;2.70;;;20.70;57.70;;;;;;6248715;23;20491;-91
2023/02/12 07:19:48;;;;;;;2.80;2.60;;;20.70;57.60;;;;;;6248648;23;20479;-91
2023/02/12 07:22:15;;;;;;;2.70;2.50;;;20.70;57.60;;;;;;6249249;23;20484;-91
2023/02/12 07:24:42;;;;;;;2.60;2.40;;;20.70;57.70;;;;;;6247946;23;20431;-92
2023/02/12 07:27:10;;;;;;;2.40;2.30;;;20.70;57.70;;;;;;6248596;23;20510;-92
2023/02/12 07:29:37;;;;;;;2.47;2.27;;;20.70;57.60;;;;;;6248649;23;20401;-92
2023/02/12 07:32:04;;;;;;;2.60;2.40;;;20.70;57.70;;;;;;6248800;23;20485;-92
2023/02/12 07:34:31;;;;;;;2.93;2.73;;;20.70;57.60;;;;;;6248391;23;20401;-92
2023/02/12 07:36:58;;;;;;;2.80;2.60;;;20.60;57.60;;;;;;6248982;22;20426;-92
2023/02/12 07:39:25;;;;;;;2.57;2.47;;;20.70;57.70;;;;;;6248369;23;20519;-92
2023/02/12 07:41:52;;;;;;;2.87;2.67;;;20.70;57.60;;;;;;6248798;23;20918;-91
2023/02/12 07:44:20;;;;;;;2.43;2.23;;;20.70;57.60;;;;;;6248963;23;20588;-91
2023/02/12 07:46:48;;;;;;;3.10;2.90;;;20.70;57.70;;;;;;6248311;23;20535;-91
2023/02/12 07:49:17;;;;;;;2.70;2.50;;;20.60;57.50;;;;;;6248615;23;20405;-92
2023/02/12 07:51:44;;;;;;;3.10;2.90;;;20.60;57.50;;;;;;6249383;23;20410;-85
2023/02/12 07:54:12;;;;;;;2.70;2.50;;;20.60;57.50;;;;;;6248543;23;20412;-91
2023/02/12 07:56:40;;;;;;;2.53;2.37;;;20.60;58.10;;;;;;6249273;23;20499;-91
2023/02/12 07:59:10;;;;;;;2.93;2.73;;;20.80;57.70;;;;;;6251164;23;20402;-89
2023/02/12 08:01:39;;;;;;;2.90;2.70;;;20.70;57.70;;;;;;6250425;23;20484;-91
2023/02/12 08:04:07;;;;;;;2.67;2.50;;;20.70;57.80;;;;;;6250059;23;20415;-89
2023/02/12 08:06:36;;;;;;;5.30;2.40;;;20.70;57.60;;;;;;6249117;22;20437;-89
2023/02/12 08:09:05;;;;;;;2.70;2.50;;;20.70;57.80;;;;;;6250475;23;20404;-89
2023/02/12 08:11:33;;;;;;;2.53;2.20;;;20.70;57.70;;;;;;6266385;22;20424;-90
2023/02/12 08:14:00;;;;;;;3.17;2.70;;;20.90;57.90;;;;;;6275622;22;20389;-90
2023/02/12 08:16:28;;;;;;;2.97;2.47;;;20.70;57.80;;;;;;6254874;22;20405;-92
2023/02/12 08:18:57;;;;;;;5.33;3.00;;;20.70;57.70;;;;;;6247964;23;20483;-93
2023/02/12 08:21:26;;;;;;;2.90;2.70;;;20.70;57.70;;;;;;6247703;23;20926;-90
2023/02/12 08:23:54;;;;;;;2.97;2.77;;;20.70;58.30;;;;;;6248060;23;20903;-91
2023/02/12 08:26:23;;;;;;;3.10;2.90;;;20.90;57.90;;;;;;6247542;23;20481;-91
2023/02/12 08:28:52;;;;;;;5.27;2.80;;;20.70;57.60;;;;;;6247852;23;20405;-92
2023/02/12 08:31:21;;;;;;;2.67;2.40;;;20.70;57.60;;;;;;6247633;23;20916;-90
2023/02/12 08:33:49;;;;;;;4.73;3.30;;;20.80;57.70;;;;;;6247956;23;20405;-92
2023/02/12 08:36:20;;;;;;;3.13;2.93;;;20.80;57.70;;;;;;6247910;22;20425;-91
2023/02/12 08:38:47;;;;;;;3.43;3.13;;;20.80;57.70;;;;;;6247375;23;20402;-89
2023/02/12 08:41:16;;;;;;;3.20;3.00;;;20.80;57.70;;;;;;6247421;23;20706;-89
2023/02/12 08:43:44;;;;;;;3.10;2.90;;;20.80;57.70;;;;;;6247903;23;20399;-89
2023/02/12 08:46:13;;;;;;;6.73;2.80;;;20.80;57.70;;;;;;6247656;23;20444;-91
2023/02/12 08:48:41;;;;;;;3.03;2.83;;;20.80;57.70;;;;;;6247592;23;20489;-90
2023/02/12 08:51:09;;;;;;;4.77;2.53;;;20.80;57.70;;;;;;6247852;23;20943;-93
2023/02/12 08:53:39;;;;;;;5.10;2.70;;;20.80;57.70;;;;;;6248121;23;20397;-86
2023/02/12 08:56:07;;;;;;;3.40;3.10;;;20.80;57.50;;;;;;6248274;23;20402;-94
2023/02/12 08:58:35;;;;;;;3.40;3.10;;;20.80;57.30;;;;;;6247930;23;20496;-94
2023/02/12 09:01:02;;;;;;;2.77;2.57;;;20.80;57.50;;;;;;6247140;23;20401;-91
2023/02/12 09:03:29;;;;;;;3.30;2.77;;;20.80;57.70;;;;;;6247579;23;20787;-90
2023/02/12 09:05:56;;;;;;;3.50;2.80;;;20.80;57.80;;;;;;6247007;23;20488;-92
2023/02/12 09:08:23;;;;;;;3.00;2.80;;;20.80;57.80;;;;;;6247882;23;20622;-92
2023/02/12 09:10:51;;;;;;;3.50;3.20;;;20.80;58.00;;;;;;6247749;23;20407;-87
2023/02/12 09:13:18;;;;;;;18.63;3.30;;;20.80;58.00;;;;;;6247522;23;20409;-91
2023/02/12 09:15:45;;;;;;;3.40;3.10;;;20.80;58.10;;;;;;6246912;23;20452;-92
2023/02/12 09:18:14;;;;;;;7.53;3.70;;;20.90;58.20;;;;;;6246830;23;20451;-91
2023/02/12 09:20:42;;;;;;;3.70;3.40;;;20.80;58.10;;;;;;6246897;23;20398;-92
2023/02/12 09:23:10;;;;;;;3.93;3.37;;;20.80;58.00;;;;;;6247208;23;20899;-92
2023/02/12 09:25:40;;;;;;;4.97;3.93;;;20.90;58.10;;;;;;6246973;23;20889;-91
2023/02/12 09:28:08;;;;;;;4.73;3.40;;;20.90;58.10;;;;;;6247003;23;20453;-91
2023/02/12 09:30:37;;;;;;;4.33;2.90;;;20.80;58.00;;;;;;6246774;23;20415;-91
2023/02/12 09:33:04;;;;;;;4.20;3.73;;;20.80;58.60;;;;;;6247308;23;20413;-91
2023/02/12 09:35:33;;;;;;;3.00;2.80;;;20.80;57.90;;;;;;6246755;23;20497;-91
2023/02/12 09:38:00;;;;;;;3.57;3.23;;;20.80;58.00;;;;;;6246797;23;20492;-91
2023/02/12 09:40:35;;;;;;;3.43;3.13;;;20.80;58.00;;;;;;6247239;22;20425;-91
2023/02/12 09:43:17;;;;;;;3.93;3.53;;;20.80;58.00;;;;;;6247416;23;20403;-91
2023/02/12 09:45:49;;;;;;;4.37;3.10;;;20.80;58.00;;;;;;6247280;23;20428;-91
2023/02/12 09:48:39;;;;;;;3.93;3.20;;;20.80;58.00;;;;;;6247333;23;20500;-92
2023/02/12 09:51:08;;;;;;;3.73;3.43;;;20.80;57.90;;;;;;6247497;23;20389;-92
2023/02/12 09:53:38;;;;;;;3.47;3.17;;;20.80;58.00;;;;;;6247223;23;20397;-92
2023/02/12 09:56:12;;;;;;;3.83;3.40;;;20.80;57.90;;;;;;6247087;23;20404;-91
2023/02/12 09:58:45;;;;;;;4.70;3.63;;;20.80;57.90;;;;;;6246907;23;20404;-91
2023/02/12 10:01:14;;;;;;;3.70;3.40;;;20.80;58.00;;;;;;6247197;23;20394;-91
2023/02/12 10:03:42;;;;;;;4.77;3.60;;;20.80;57.90;;;;;;6246952;23;20480;-91
2023/02/12 10:06:14;;;;;;;3.40;3.10;;;20.80;57.90;;;;;;6247063;23;20880;-92
2023/02/12 10:08:59;;;;;;;4.30;2.90;;;20.80;57.90;;;;;;6247643;23;20752;-91
2023/02/12 10:11:52;;;;;;;3.43;3.13;;;20.80;57.90;;;;;;6245905;23;20407;-91
2023/02/12 10:14:44;;;;;;;3.80;3.50;;;20.80;57.90;;;;;;6247237;23;20394;-91
2023/02/12 10:17:18;;;;;;;3.63;3.33;;;20.80;57.90;;;;;;6247112;23;20930;-92
2023/02/12 10:20:15;;;;;;;3.07;2.83;;;20.80;57.90;;;;;;6246771;23;20761;-91
2023/02/12 10:22:50;;;;;;;3.20;2.80;;;20.80;57.90;;;;;;6241503;23;20405;-91
2023/02/12 10:25:25;;;;;;;3.87;3.57;;;20.80;57.90;;;;;;6247777;23;20483;-92
2023/02/12 10:27:54;;;;;;;3.70;3.27;;;20.90;57.90;;;;;;6247162;23;20437;-92
2023/02/12 10:30:27;;;;;;;3.60;3.30;;;20.90;57.90;;;;;;6247264;23;20409;-91
2023/02/12 10:33:03;;;;;;;4.07;3.67;;;20.80;57.90;;;;;;6247478;23;20390;-91
2023/02/12 10:35:32;;;;;;;4.00;3.70;;;20.80;57.90;;;;;;6247855;23;20435;-92
2023/02/12 10:38:05;;;;;;;3.93;3.53;;;20.80;57.90;;;;;;6247703;23;20397;-91
2023/02/12 10:40:34;;;;;;;4.10;3.70;;;20.90;57.90;;;;;;6248006;23;20473;-92
2023/02/12 10:43:02;;;;;;;4.03;2.93;;;20.90;57.90;;;;;;6252157;23;20480;-92
2023/02/12 10:45:33;;;;;;;3.40;3.10;;;20.90;57.90;;;;;;6274648;22;20397;-91
2023/02/12 10:48:08;;;;;;;9.17;3.70;;;20.90;57.90;;;;;;6274475;22;20455;-91
2023/02/12 10:50:45;;;;;;;3.50;3.20;;;20.90;57.90;;;;;;6274729;22;20401;-89
2023/02/12 10:53:20;;;;;;;3.77;3.00;;;21.10;58.00;;;;;;6265286;22;20444;-91
2023/02/12 10:55:46;;;;;;;3.33;3.03;;;20.90;57.90;;;;;;6246690;23;20410;-92
2023/02/12 10:58:21;;;;;;;4.23;3.50;;;20.90;57.90;;;;;;6246347;23;20484;-91
2023/02/12 11:00:57;;;;;;;3.67;3.30;;;21.00;57.90;;;;;;6246504;23;20469;-91
2023/02/12 11:03:29;;;;;;;3.40;3.10;;;21.00;57.90;;;;;;6246816;23;20394;-92
2023/02/12 11:05:56;;;;;;;4.77;3.23;;;20.90;57.90;;;;;;6246693;23;20407;-91
2023/02/12 11:08:32;;;;;;;3.43;3.20;;;20.90;57.80;;;;;;6246302;23;20481;-92
2023/02/12 11:11:09;;;;;;;3.40;3.07;;;20.90;57.80;;;;;;6246981;23;20396;-91
2023/02/12 11:13:38;;;;;;;3.87;3.57;;;20.90;57.80;;;;;;6246727;23;20390;-91
2023/02/12 11:16:07;;;;;;;3.53;3.23;;;20.90;57.80;;;;;;6246276;23;20398;-92
2023/02/12 11:18:36;;;;;;;2.80;2.60;;;20.90;57.80;;;;;;6246262;23;20442;-93
2023/02/12 11:21:05;;;;;;;3.50;3.20;;;21.00;57.90;;;;;;6246723;23;20390;-92
2023/02/12 11:23:34;;;;;;;3.47;3.17;;;20.90;57.80;;;;;;6219685;23;20399;-92
2023/02/12 11:26:03;;;;;;;3.33;3.00;;;20.90;57.80;;;;;;6246211;23;20405;-93
2023/02/12 11:28:32;;;;;;;2.90;2.67;;;20.90;57.80;;;;;;6246790;23;20445;-92
2023/02/12 11:31:00;;;;;;;3.60;3.30;;;21.10;58.00;;;;;;6246437;23;20409;-93
2023/02/12 11:33:34;;;;;;;3.80;2.93;;;20.90;57.80;;;;;;6246741;23;20786;-92
2023/02/12 11:36:04;;;;;;;3.20;2.90;;;21.00;57.80;;;;;;6246586;23;20394;-92
2023/02/12 11:38:34;;;;;;;3.40;3.20;;;20.90;57.80;;;;;;6246310;23;20429;-92
2023/02/12 11:41:09;;;;;;;3.73;3.03;;;20.90;57.80;;;;;;6247002;23;20401;-92
2023/02/12 11:43:38;;;;;;;2.97;2.63;;;21.00;58.40;;;;;;6249157;23;20486;-91
2023/02/12 11:46:07;;;;;;;3.10;2.90;;;20.90;57.80;;;;;;6248441;23;20480;-91
2023/02/12 11:48:38;;;;;;;4.20;3.33;;;20.90;57.80;;;;;;6248266;23;21034;-91
2023/02/12 11:51:12;;;;;;;3.13;2.73;;;20.90;57.80;;;;;;6248254;23;20892;-91
2023/02/12 11:53:47;;;;;;;3.10;2.80;;;20.90;57.80;;;;;;6248719;23;20480;-92
2023/02/12 11:56:14;;;;;;;3.23;3.03;;;20.90;57.80;;;;;;6249361;23;20495;-93
2023/02/12 11:58:43;;;;;;;3.07;2.77;;;20.90;58.30;;;;;;6249237;23;20475;-92
2023/02/12 12:01:15;;;;;;;3.03;2.83;;;20.90;57.80;;;;;;6248759;23;20444;-93
2023/02/12 12:03:52;;;;;;;3.33;3.03;;;20.90;57.80;;;;;;6248350;23;20424;-93
2023/02/12 12:06:34;;;;;;;2.63;2.43;;;20.90;57.70;;;;;;6249190;23;20767;-92
2023/02/12 12:09:05;;;;;;;2.83;2.63;;;21.00;57.80;;;;;;6248924;23;20521;-91
2023/02/12 12:11:40;;;;;;;2.90;2.70;;;20.90;57.80;;;;;;6249792;23;20477;-93
2023/02/12 12:14:14;;;;;;;3.17;2.97;;;20.90;57.80;;;;;;6249449;23;20421;-93
2023/02/12 12:19:53;;;;;;;2.77;2.57;;;20.90;57.80;;;;;;6250226;23;20448;-92
2023/02/12 12:22:39;;;;;;;3.17;2.93;;;20.90;57.80;;;;;;6249729;23;20389;-91
2023/02/12 12:25:12;;;;;;;2.90;2.57;;;20.90;57.80;;;;;;6246812;23;20496;-91
2023/02/12 12:28:05;;;;;;;3.37;2.60;;;20.90;57.80;;;;;;6247834;23;20432;-92
2023/02/12 12:30:56;;;;;;;2.63;2.43;;;20.90;57.80;;;;;;6248225;23;20394;-92
2023/02/12 12:33:32;;;;;;;3.13;2.93;;;20.90;57.80;;;;;;6216945;23;20496;-92
2023/02/12 12:36:19;;;;;;;2.53;2.33;;;20.90;57.80;;;;;;6248222;23;20422;-91
2023/02/12 12:38:58;;;;;;;2.23;2.03;;;20.90;57.80;;;;;;6248356;23;20395;-94
2023/02/12 12:41:35;;;;;;;3.07;2.60;;;20.90;57.80;;;;;;6248470;23;20468;-92
2023/02/12 12:44:13;;;;;;;3.10;2.80;;;20.90;57.70;;;;;;6248134;23;20480;-91
2023/02/12 12:46:53;;;;;;;3.17;2.97;;;20.90;57.70;;;;;;6248117;23;20476;-92
2023/02/12 12:49:49;;;;;;;2.73;2.50;;;20.90;57.70;;;;;;6248054;23;20413;-92
2023/02/12 12:52:29;;;;;;;2.90;2.70;;;20.90;57.80;;;;;;6247524;23;20390;-92
2023/02/12 12:55:11;;;;;;;2.90;2.70;;;20.90;57.80;;;;;;6248454;23;20488;-91
2023/02/12 12:57:47;;;;;;;2.77;2.57;;;20.90;57.80;;;;;;6248063;23;20476;-93
2023/02/12 13:00:30;;;;;;;2.60;2.40;;;20.90;57.80;;;;;;6248180;23;20412;-93
2023/02/12 13:03:28;;;;;;;2.93;2.63;;;20.90;57.70;;;;;;6247684;23;20389;-91
2023/02/12 13:06:07;;;;;;;2.80;2.60;;;20.90;57.80;;;;;;6248540;23;20397;-91
2023/02/12 13:08:53;;;;;;;2.90;2.70;;;20.90;57.80;;;;;;6247857;23;20764;-91
2023/02/12 13:11:35;;;;;;;2.63;2.43;;;20.90;57.70;;;;;;6247859;23;20397;-91
2023/02/12 13:14:26;;;;;;;2.73;2.30;;;20.90;57.70;;;;;;6247953;23;20476;-91